Petteway, Texas
Current Conditions -  °F | °C
As of 2:35 AM on Sunday 26 Oct 2014 (Local Time) from KLHB Reporting Station
Haze Haze  
Wind Chill: 63°   Ceiling: 700
Heat Index: 63°   Visibility: 1mi
Dew Point: 59°   Wind: 3mph
Humidity: 87%   Direction: 110°ESE
Pressure: 30.07"   Gusts: NA
Location:  31.1274°N, 96.6627°W
Report Text: KLHB 260735Z AUTO 11003KT 1SM BR VV007 17/15 A3007 RMK AO2 VIS 1/2V3 T01720151
Loading
Personal Weather Stations






























Interactive Weather Map
Tropical Storm Tracking
New forecast layout! Learn more

10-Day Weather Forecast

Advertisements
Track Severe Weather on mobile